sensor_id;sensor_type;location;lat;lon;timestamp;temperature;humidity
17007;DHT22;8620;51.168;4.154;2022-09-20T00:01:24;11.90;99.90
17007;DHT22;8620;51.168;4.154;2022-09-20T00:03:54;11.90;99.90
17007;DHT22;8620;51.168;4.154;2022-09-20T00:06:27;11.70;99.90
17007;DHT22;8620;51.168;4.154;2022-09-20T00:08:55;11.60;99.90
17007;DHT22;8620;51.168;4.154;2022-09-20T00:11:24;11.60;99.90
17007;DHT22;8620;51.168;4.154;2022-09-20T00:13:53;11.70;99.90
17007;DHT22;8620;51.168;4.154;2022-09-20T00:16:27;11.70;99.90
17007;DHT22;8620;51.168;4.154;2022-09-20T00:18:57;11.60;99.90
17007;DHT22;8620;51.168;4.154;2022-09-20T00:21:28;11.50;99.90
17007;DHT22;8620;51.168;4.154;2022-09-20T00:23:55;11.50;99.90
17007;DHT22;8620;51.168;4.154;2022-09-20T00:26:26;11.50;99.90
17007;DHT22;8620;51.168;4.154;2022-09-20T00:28:52;11.50;99.90
17007;DHT22;8620;51.168;4.154;2022-09-20T00:31:18;11.50;99.90
17007;DHT22;8620;51.168;4.154;2022-09-20T00:33:45;11.50;99.90
17007;DHT22;8620;51.168;4.154;2022-09-20T00:36:32;11.60;99.90
17007;DHT22;8620;51.168;4.154;2022-09-20T00:39:00;11.50;99.90
17007;DHT22;8620;51.168;4.154;2022-09-20T00:41:28;11.50;99.90
17007;DHT22;8620;51.168;4.154;2022-09-20T00:43:55;11.40;99.90
17007;DHT22;8620;51.168;4.154;2022-09-20T00:49:12;11.50;99.90
17007;DHT22;8620;51.168;4.154;2022-09-20T00:51:46;11.40;99.90
17007;DHT22;8620;51.168;4.154;2022-09-20T00:54:17;11.40;99.90
17007;DHT22;8620;51.168;4.154;2022-09-20T00:56:44;11.40;99.90
17007;DHT22;8620;51.168;4.154;2022-09-20T00:59:20;11.40;99.90
17007;DHT22;8620;51.168;4.154;2022-09-20T01:04:38;11.50;99.90
17007;DHT22;8620;51.168;4.154;2022-09-20T01:07:06;11.60;99.90
17007;DHT22;8620;51.168;4.154;2022-09-20T01:09:34;11.90;99.90
17007;DHT22;8620;51.168;4.154;2022-09-20T01:12:04;11.90;99.90
17007;DHT22;8620;51.168;4.154;2022-09-20T01:14:32;11.90;99.90
17007;DHT22;8620;51.168;4.154;2022-09-20T01:17:03;11.90;99.90
17007;DHT22;8620;51.168;4.154;2022-09-20T01:22:04;11.60;99.90
17007;DHT22;8620;51.168;4.154;2022-09-20T01:27:45;11.70;99.90
17007;DHT22;8620;51.168;4.154;2022-09-20T01:30:21;11.70;99.90
17007;DHT22;8620;51.168;4.154;2022-09-20T01:35:38;12.00;99.90
17007;DHT22;8620;51.168;4.154;2022-09-20T01:41:24;11.80;99.90
17007;DHT22;8620;51.168;4.154;2022-09-20T01:47:48;12.30;99.90
17007;DHT22;8620;51.168;4.154;2022-09-20T01:53:33;12.70;99.90
17007;DHT22;8620;51.168;4.154;2022-09-20T02:02:06;12.20;99.90
17007;DHT22;8620;51.168;4.154;2022-09-20T02:07:36;12.30;99.90
17007;DHT22;8620;51.168;4.154;2022-09-20T02:25:30;12.60;99.90
17007;DHT22;8620;51.168;4.154;2022-09-20T02:31:21;12.70;99.90
17007;DHT22;8620;51.168;4.154;2022-09-20T02:39:36;12.40;99.90
17007;DHT22;8620;51.168;4.154;2022-09-20T02:45:09;12.40;99.90
17007;DHT22;8620;51.168;4.154;2022-09-20T02:47:42;12.80;99.90
17007;DHT22;8620;51.168;4.154;2022-09-20T02:50:30;12.80;99.90
17007;DHT22;8620;51.168;4.154;2022-09-20T03:01:46;12.50;99.90
17007;DHT22;8620;51.168;4.154;2022-09-20T03:04:38;12.40;99.90
17007;DHT22;8620;51.168;4.154;2022-09-20T03:10:24;12.60;99.90
17007;DHT22;8620;51.168;4.154;2022-09-20T03:16:11;11.90;99.90
17007;DHT22;8620;51.168;4.154;2022-09-20T03:21:55;11.80;99.90
17007;DHT22;8620;51.168;4.154;2022-09-20T03:27:39;11.70;99.90
17007;DHT22;8620;51.168;4.154;2022-09-20T03:39:41;11.50;99.90
17007;DHT22;8620;51.168;4.154;2022-09-20T03:42:30;11.50;99.90
17007;DHT22;8620;51.168;4.154;2022-09-20T03:50:49;11.40;99.90
17007;DHT22;8620;51.168;4.154;2022-09-20T03:57:13;11.60;99.90
17007;DHT22;8620;51.168;4.154;2022-09-20T03:59:42;11.70;99.90
17007;DHT22;8620;51.168;4.154;2022-09-20T04:02:52;11.90;99.90
17007;DHT22;8620;51.168;4.154;2022-09-20T04:05:49;11.40;99.90
17007;DHT22;8620;51.168;4.154;2022-09-20T04:14:56;11.00;99.90
17007;DHT22;8620;51.168;4.154;2022-09-20T04:17:38;10.90;99.90
17007;DHT22;8620;51.168;4.154;2022-09-20T04:20:27;11.20;99.90
17007;DHT22;8620;51.168;4.154;2022-09-20T04:23:07;11.50;99.90
17007;DHT22;8620;51.168;4.154;2022-09-20T04:26:01;11.40;99.90
17007;DHT22;8620;51.168;4.154;2022-09-20T04:29:25;11.00;99.90
17007;DHT22;8620;51.168;4.154;2022-09-20T04:31:46;10.90;99.90
17007;DHT22;8620;51.168;4.154;2022-09-20T04:34:24;10.80;99.90
17007;DHT22;8620;51.168;4.154;2022-09-20T04:37:36;10.70;99.90
17007;DHT22;8620;51.168;4.154;2022-09-20T04:40:16;10.70;99.90
17007;DHT22;8620;51.168;4.154;2022-09-20T05:13:17;10.80;99.90
17007;DHT22;8620;51.168;4.154;2022-09-20T05:15:59;10.70;99.90
17007;DHT22;8620;51.168;4.154;2022-09-20T05:27:57;11.10;99.90
17007;DHT22;8620;51.168;4.154;2022-09-20T05:30:46;11.10;99.90
17007;DHT22;8620;51.168;4.154;2022-09-20T05:36:28;11.00;99.90
17007;DHT22;8620;51.168;4.154;2022-09-20T05:42:00;11.10;99.90
17007;DHT22;8620;51.168;4.154;2022-09-20T05:45:02;11.10;99.90
17007;DHT22;8620;51.168;4.154;2022-09-20T05:47:48;11.10;99.90
17007;DHT22;8620;51.168;4.154;2022-09-20T06:05:46;11.30;99.90
17007;DHT22;8620;51.168;4.154;2022-09-20T06:11:27;12.10;99.90
17007;DHT22;8620;51.168;4.154;2022-09-20T06:19:43;11.30;99.90
17007;DHT22;8620;51.168;4.154;2022-09-20T06:22:16;11.30;99.90
17007;DHT22;8620;51.168;4.154;2022-09-20T06:30:30;12.10;99.90
17007;DHT22;8620;51.168;4.154;2022-09-20T06:42:10;12.70;99.90
17007;DHT22;8620;51.168;4.154;2022-09-20T06:44:36;12.90;99.90
17007;DHT22;8620;51.168;4.154;2022-09-20T06:47:13;13.60;99.90
17007;DHT22;8620;51.168;4.154;2022-09-20T06:49:40;13.40;99.90
17007;DHT22;8620;51.168;4.154;2022-09-20T06:52:14;13.10;99.90
17007;DHT22;8620;51.168;4.154;2022-09-20T06:54:51;12.80;99.90
17007;DHT22;8620;51.168;4.154;2022-09-20T06:57:31;12.50;99.90
17007;DHT22;8620;51.168;4.154;2022-09-20T06:59:59;12.40;99.90
17007;DHT22;8620;51.168;4.154;2022-09-20T07:02:26;12.40;99.90
17007;DHT22;8620;51.168;4.154;2022-09-20T07:04:55;12.50;99.90
17007;DHT22;8620;51.168;4.154;2022-09-20T07:07:24;12.30;99.90
17007;DHT22;8620;51.168;4.154;2022-09-20T07:09:50;12.40;99.90
17007;DHT22;8620;51.168;4.154;2022-09-20T07:12:15;12.40;99.90
17007;DHT22;8620;51.168;4.154;2022-09-20T07:14:42;12.90;99.90
17007;DHT22;8620;51.168;4.154;2022-09-20T07:17:11;13.20;99.90
17007;DHT22;8620;51.168;4.154;2022-09-20T07:19:37;13.00;99.90
17007;DHT22;8620;51.168;4.154;2022-09-20T07:22:03;13.00;99.90
17007;DHT22;8620;51.168;4.154;2022-09-20T07:24:29;13.30;99.90
17007;DHT22;8620;51.168;4.154;2022-09-20T07:27:01;13.30;99.90
17007;DHT22;8620;51.168;4.154;2022-09-20T07:29:28;13.10;99.90
17007;DHT22;8620;51.168;4.154;2022-09-20T07:32:00;13.00;99.90
17007;DHT22;8620;51.168;4.154;2022-09-20T07:34:26;13.30;99.90
17007;DHT22;8620;51.168;4.154;2022-09-20T07:36:52;13.70;99.90
17007;DHT22;8620;51.168;4.154;2022-09-20T07:39:21;14.00;99.90
17007;DHT22;8620;51.168;4.154;2022-09-20T07:41:47;14.30;99.90
17007;DHT22;8620;51.168;4.154;2022-09-20T07:44:15;14.70;99.90
17007;DHT22;8620;51.168;4.154;2022-09-20T07:46:56;14.90;99.90
17007;DHT22;8620;51.168;4.154;2022-09-20T07:49:24;15.00;99.90
17007;DHT22;8620;51.168;4.154;2022-09-20T07:51:57;15.00;99.90
17007;DHT22;8620;51.168;4.154;2022-09-20T07:54:34;15.10;99.90
17007;DHT22;8620;51.168;4.154;2022-09-20T07:57:08;15.10;99.90
17007;DHT22;8620;51.168;4.154;2022-09-20T07:59:34;14.50;99.90
17007;DHT22;8620;51.168;4.154;2022-09-20T08:02:12;13.90;99.90
17007;DHT22;8620;51.168;4.154;2022-09-20T08:04:44;13.60;99.90
17007;DHT22;8620;51.168;4.154;2022-09-20T08:07:11;13.30;99.90
17007;DHT22;8620;51.168;4.154;2022-09-20T08:09:42;13.40;99.90
17007;DHT22;8620;51.168;4.154;2022-09-20T08:12:08;13.30;99.90
17007;DHT22;8620;51.168;4.154;2022-09-20T08:14:40;13.20;99.90
17007;DHT22;8620;51.168;4.154;2022-09-20T08:17:09;13.50;99.90
17007;DHT22;8620;51.168;4.154;2022-09-20T08:19:35;13.70;99.90
17007;DHT22;8620;51.168;4.154;2022-09-20T08:22:04;14.40;99.90
17007;DHT22;8620;51.168;4.154;2022-09-20T08:24:36;15.00;99.90
17007;DHT22;8620;51.168;4.154;2022-09-20T08:27:02;16.20;99.90
17007;DHT22;8620;51.168;4.154;2022-09-20T08:29:34;16.20;99.90
17007;DHT22;8620;51.168;4.154;2022-09-20T08:32:00;15.90;99.90
17007;DHT22;8620;51.168;4.154;2022-09-20T08:34:27;17.00;99.90
17007;DHT22;8620;51.168;4.154;2022-09-20T08:36:58;17.50;99.90
17007;DHT22;8620;51.168;4.154;2022-09-20T08:39:30;17.40;99.90
17007;DHT22;8620;51.168;4.154;2022-09-20T08:44:56;17.40;99.90
17007;DHT22;8620;51.168;4.154;2022-09-20T08:47:34;16.70;99.90
17007;DHT22;8620;51.168;4.154;2022-09-20T08:50:06;16.10;99.90
17007;DHT22;8620;51.168;4.154;2022-09-20T08:52:45;16.90;99.90
17007;DHT22;8620;51.168;4.154;2022-09-20T08:55:22;17.70;99.90
17007;DHT22;8620;51.168;4.154;2022-09-20T08:57:55;18.20;99.90
17007;DHT22;8620;51.168;4.154;2022-09-20T09:00:28;18.30;99.90
17007;DHT22;8620;51.168;4.154;2022-09-20T09:03:04;18.30;99.90
17007;DHT22;8620;51.168;4.154;2022-09-20T09:05:44;18.50;99.90
17007;DHT22;8620;51.168;4.154;2022-09-20T09:08:14;18.50;99.90
17007;DHT22;8620;51.168;4.154;2022-09-20T09:10:55;18.40;99.90
17007;DHT22;8620;51.168;4.154;2022-09-20T09:13:36;18.30;99.90
17007;DHT22;8620;51.168;4.154;2022-09-20T09:16:14;18.40;99.90
17007;DHT22;8620;51.168;4.154;2022-09-20T09:18:43;18.10;99.90
17007;DHT22;8620;51.168;4.154;2022-09-20T09:21:22;18.00;99.90
17007;DHT22;8620;51.168;4.154;2022-09-20T09:24:03;18.00;99.90
17007;DHT22;8620;51.168;4.154;2022-09-20T09:26:42;17.90;99.90
17007;DHT22;8620;51.168;4.154;2022-09-20T09:29:22;17.90;99.90
17007;DHT22;8620;51.168;4.154;2022-09-20T09:31:51;18.00;99.90
17007;DHT22;8620;51.168;4.154;2022-09-20T09:34:28;17.60;99.90
17007;DHT22;8620;51.168;4.154;2022-09-20T09:36:56;17.40;99.90
17007;DHT22;8620;51.168;4.154;2022-09-20T09:39:30;17.40;99.90
17007;DHT22;8620;51.168;4.154;2022-09-20T09:42:20;17.60;99.90
17007;DHT22;8620;51.168;4.154;2022-09-20T09:45:12;17.80;99.90
17007;DHT22;8620;51.168;4.154;2022-09-20T09:47:53;17.80;99.90
17007;DHT22;8620;51.168;4.154;2022-09-20T09:50:29;17.90;99.90
17007;DHT22;8620;51.168;4.154;2022-09-20T09:53:22;17.90;99.90
17007;DHT22;8620;51.168;4.154;2022-09-20T09:56:04;17.70;99.90
17007;DHT22;8620;51.168;4.154;2022-09-20T09:59:00;17.70;99.90
17007;DHT22;8620;51.168;4.154;2022-09-20T10:13:38;15.60;99.90
17007;DHT22;8620;51.168;4.154;2022-09-20T10:36:48;16.10;99.90
17007;DHT22;8620;51.168;4.154;2022-09-20T10:39:35;16.30;99.90
17007;DHT22;8620;51.168;4.154;2022-09-20T10:50:58;19.30;99.90
17007;DHT22;8620;51.168;4.154;2022-09-20T10:56:46;20.60;99.90
17007;DHT22;8620;51.168;4.154;2022-09-20T11:05:42;20.70;99.90
17007;DHT22;8620;51.168;4.154;2022-09-20T11:08:19;21.10;99.90
17007;DHT22;8620;51.168;4.154;2022-09-20T11:11:04;20.90;99.90
17007;DHT22;8620;51.168;4.154;2022-09-20T11:13:41;20.30;99.90
17007;DHT22;8620;51.168;4.154;2022-09-20T11:16:21;20.50;99.90
17007;DHT22;8620;51.168;4.154;2022-09-20T11:22:09;19.60;99.90
17007;DHT22;8620;51.168;4.154;2022-09-20T11:24:45;19.40;99.90
17007;DHT22;8620;51.168;4.154;2022-09-20T11:27:29;19.50;99.90
17007;DHT22;8620;51.168;4.154;2022-09-20T11:30:13;19.50;99.90
17007;DHT22;8620;51.168;4.154;2022-09-20T11:32:50;19.50;99.90
17007;DHT22;8620;51.168;4.154;2022-09-20T11:35:38;19.40;99.90
17007;DHT22;8620;51.168;4.154;2022-09-20T11:38:18;18.70;99.90
17007;DHT22;8620;51.168;4.154;2022-09-20T11:40:54;18.50;99.90
17007;DHT22;8620;51.168;4.154;2022-09-20T11:43:28;18.40;99.90
17007;DHT22;8620;51.168;4.154;2022-09-20T11:46:00;18.50;99.90
17007;DHT22;8620;51.168;4.154;2022-09-20T11:48:37;18.50;99.90
17007;DHT22;8620;51.168;4.154;2022-09-20T11:51:30;18.30;99.90
17007;DHT22;8620;51.168;4.154;2022-09-20T11:57:14;17.70;99.90
17007;DHT22;8620;51.168;4.154;2022-09-20T11:59:51;17.90;99.90
17007;DHT22;8620;51.168;4.154;2022-09-20T12:02:39;18.20;99.90
17007;DHT22;8620;51.168;4.154;2022-09-20T12:05:49;18.20;99.90
17007;DHT22;8620;51.168;4.154;2022-09-20T12:08:35;18.20;99.90
17007;DHT22;8620;51.168;4.154;2022-09-20T12:11:14;18.00;99.90
17007;DHT22;8620;51.168;4.154;2022-09-20T12:13:52;18.00;99.90
17007;DHT22;8620;51.168;4.154;2022-09-20T12:16:37;18.10;99.90
17007;DHT22;8620;51.168;4.154;2022-09-20T12:19:37;18.00;99.90
17007;DHT22;8620;51.168;4.154;2022-09-20T12:24:38;18.40;99.90
17007;DHT22;8620;51.168;4.154;2022-09-20T12:35:51;18.60;99.90
17007;DHT22;8620;51.168;4.154;2022-09-20T12:38:33;18.10;99.90
17007;DHT22;8620;51.168;4.154;2022-09-20T12:41:09;18.10;99.90
17007;DHT22;8620;51.168;4.154;2022-09-20T12:44:02;18.30;99.90
17007;DHT22;8620;51.168;4.154;2022-09-20T12:46:40;18.00;99.90
17007;DHT22;8620;51.168;4.154;2022-09-20T12:49:20;17.30;99.90
17007;DHT22;8620;51.168;4.154;2022-09-20T12:52:46;17.00;99.90
17007;DHT22;8620;51.168;4.154;2022-09-20T13:14:28;17.90;99.90
17007;DHT22;8620;51.168;4.154;2022-09-20T13:19:44;18.70;99.90
17007;DHT22;8620;51.168;4.154;2022-09-20T13:22:35;18.00;99.90
17007;DHT22;8620;51.168;4.154;2022-09-20T13:25:14;17.20;99.90
17007;DHT22;8620;51.168;4.154;2022-09-20T13:27:49;17.20;99.90
17007;DHT22;8620;51.168;4.154;2022-09-20T13:30:27;17.10;99.90
17007;DHT22;8620;51.168;4.154;2022-09-20T13:33:14;16.80;99.90
17007;DHT22;8620;51.168;4.154;2022-09-20T13:35:54;17.20;99.90
17007;DHT22;8620;51.168;4.154;2022-09-20T13:38:26;17.70;99.90
17007;DHT22;8620;51.168;4.154;2022-09-20T13:41:03;18.20;99.90
17007;DHT22;8620;51.168;4.154;2022-09-20T13:43:46;18.50;99.90
17007;DHT22;8620;51.168;4.154;2022-09-20T13:46:22;18.50;99.90
17007;DHT22;8620;51.168;4.154;2022-09-20T13:49:16;18.60;99.90
17007;DHT22;8620;51.168;4.154;2022-09-20T13:51:51;18.50;99.90
17007;DHT22;8620;51.168;4.154;2022-09-20T13:56:59;18.60;99.90
17007;DHT22;8620;51.168;4.154;2022-09-20T13:59:41;18.80;99.90
17007;DHT22;8620;51.168;4.154;2022-09-20T14:02:28;18.90;99.90
17007;DHT22;8620;51.168;4.154;2022-09-20T14:05:03;18.80;99.90
17007;DHT22;8620;51.168;4.154;2022-09-20T14:07:34;18.60;99.90
17007;DHT22;8620;51.168;4.154;2022-09-20T14:10:01;18.50;99.90
17007;DHT22;8620;51.168;4.154;2022-09-20T14:12:27;18.30;99.90
17007;DHT22;8620;51.168;4.154;2022-09-20T14:15:00;18.00;99.90
17007;DHT22;8620;51.168;4.154;2022-09-20T14:17:32;17.40;99.90
17007;DHT22;8620;51.168;4.154;2022-09-20T14:20:01;17.20;99.90
17007;DHT22;8620;51.168;4.154;2022-09-20T14:22:27;17.10;99.90
17007;DHT22;8620;51.168;4.154;2022-09-20T14:25:17;17.00;99.90
17007;DHT22;8620;51.168;4.154;2022-09-20T14:28:16;16.70;99.90
17007;DHT22;8620;51.168;4.154;2022-09-20T14:30:48;16.90;99.90
17007;DHT22;8620;51.168;4.154;2022-09-20T14:33:19;17.10;99.90
17007;DHT22;8620;51.168;4.154;2022-09-20T14:35:50;17.10;99.90
17007;DHT22;8620;51.168;4.154;2022-09-20T14:38:23;17.20;99.90
17007;DHT22;8620;51.168;4.154;2022-09-20T14:40:53;17.50;99.90
17007;DHT22;8620;51.168;4.154;2022-09-20T14:43:23;17.70;99.90
17007;DHT22;8620;51.168;4.154;2022-09-20T14:45:57;17.90;99.90
17007;DHT22;8620;51.168;4.154;2022-09-20T14:48:38;18.00;99.90
17007;DHT22;8620;51.168;4.154;2022-09-20T14:51:22;18.30;99.90
17007;DHT22;8620;51.168;4.154;2022-09-20T14:56:46;18.50;99.90
17007;DHT22;8620;51.168;4.154;2022-09-20T15:02:30;18.70;99.90
17007;DHT22;8620;51.168;4.154;2022-09-20T15:04:54;18.80;99.90
17007;DHT22;8620;51.168;4.154;2022-09-20T15:07:23;18.90;99.90
17007;DHT22;8620;51.168;4.154;2022-09-20T15:09:49;18.90;99.90
17007;DHT22;8620;51.168;4.154;2022-09-20T15:12:17;18.90;99.90
17007;DHT22;8620;51.168;4.154;2022-09-20T15:14:44;19.10;99.90
17007;DHT22;8620;51.168;4.154;2022-09-20T15:17:16;19.10;99.90
17007;DHT22;8620;51.168;4.154;2022-09-20T15:19:46;19.00;99.90
17007;DHT22;8620;51.168;4.154;2022-09-20T15:22:13;18.80;99.90
17007;DHT22;8620;51.168;4.154;2022-09-20T15:24:43;18.80;99.90
17007;DHT22;8620;51.168;4.154;2022-09-20T15:27:12;18.50;99.90
17007;DHT22;8620;51.168;4.154;2022-09-20T15:29:38;18.60;99.90
17007;DHT22;8620;51.168;4.154;2022-09-20T15:32:10;18.50;99.90
17007;DHT22;8620;51.168;4.154;2022-09-20T15:34:38;18.50;99.90
17007;DHT22;8620;51.168;4.154;2022-09-20T15:37:07;18.40;99.90
17007;DHT22;8620;51.168;4.154;2022-09-20T15:39:33;18.50;99.90
17007;DHT22;8620;51.168;4.154;2022-09-20T15:42:04;18.20;99.90
17007;DHT22;8620;51.168;4.154;2022-09-20T15:44:32;18.10;99.90
17007;DHT22;8620;51.168;4.154;2022-09-20T15:46:58;18.00;99.90
17007;DHT22;8620;51.168;4.154;2022-09-20T15:49:24;17.80;99.90
17007;DHT22;8620;51.168;4.154;2022-09-20T15:51:53;17.60;99.90
17007;DHT22;8620;51.168;4.154;2022-09-20T15:54:19;17.30;99.90
17007;DHT22;8620;51.168;4.154;2022-09-20T15:56:45;17.10;99.90
17007;DHT22;8620;51.168;4.154;2022-09-20T15:59:14;17.00;99.90
17007;DHT22;8620;51.168;4.154;2022-09-20T16:01:44;16.80;99.90
17007;DHT22;8620;51.168;4.154;2022-09-20T16:04:17;17.00;99.90
17007;DHT22;8620;51.168;4.154;2022-09-20T16:06:48;17.10;99.90
17007;DHT22;8620;51.168;4.154;2022-09-20T16:09:18;17.20;99.90
17007;DHT22;8620;51.168;4.154;2022-09-20T16:11:52;17.20;99.90
17007;DHT22;8620;51.168;4.154;2022-09-20T16:14:28;17.40;99.90
17007;DHT22;8620;51.168;4.154;2022-09-20T16:16:54;17.40;99.90
17007;DHT22;8620;51.168;4.154;2022-09-20T16:19:20;17.30;99.90
17007;DHT22;8620;51.168;4.154;2022-09-20T16:21:49;17.40;99.90
17007;DHT22;8620;51.168;4.154;2022-09-20T16:24:28;17.30;99.90
17007;DHT22;8620;51.168;4.154;2022-09-20T16:26:59;17.30;99.90
17007;DHT22;8620;51.168;4.154;2022-09-20T16:29:26;17.30;99.90
17007;DHT22;8620;51.168;4.154;2022-09-20T16:31:55;17.30;99.90
17007;DHT22;8620;51.168;4.154;2022-09-20T16:34:33;17.20;99.90
17007;DHT22;8620;51.168;4.154;2022-09-20T16:37:12;17.30;99.90
17007;DHT22;8620;51.168;4.154;2022-09-20T16:39:41;17.20;99.90
17007;DHT22;8620;51.168;4.154;2022-09-20T16:42:11;17.00;99.90
17007;DHT22;8620;51.168;4.154;2022-09-20T16:44:39;16.90;99.90
17007;DHT22;8620;51.168;4.154;2022-09-20T16:47:13;16.80;99.90
17007;DHT22;8620;51.168;4.154;2022-09-20T16:49:51;16.70;99.90
17007;DHT22;8620;51.168;4.154;2022-09-20T16:52:18;16.80;99.90
17007;DHT22;8620;51.168;4.154;2022-09-20T16:54:53;16.70;99.90
17007;DHT22;8620;51.168;4.154;2022-09-20T16:57:24;16.70;99.90
17007;DHT22;8620;51.168;4.154;2022-09-20T16:59:56;16.70;99.90
17007;DHT22;8620;51.168;4.154;2022-09-20T17:02:28;16.70;99.90
17007;DHT22;8620;51.168;4.154;2022-09-20T17:05:01;16.80;99.90
17007;DHT22;8620;51.168;4.154;2022-09-20T17:07:33;16.60;99.90
17007;DHT22;8620;51.168;4.154;2022-09-20T17:10:02;16.40;99.90
17007;DHT22;8620;51.168;4.154;2022-09-20T17:12:36;16.40;99.90
17007;DHT22;8620;51.168;4.154;2022-09-20T17:15:07;16.10;99.90
17007;DHT22;8620;51.168;4.154;2022-09-20T17:17:36;15.90;99.90
17007;DHT22;8620;51.168;4.154;2022-09-20T17:20:07;15.80;99.90
17007;DHT22;8620;51.168;4.154;2022-09-20T17:22:36;15.70;99.90
17007;DHT22;8620;51.168;4.154;2022-09-20T17:25:02;15.70;99.90
17007;DHT22;8620;51.168;4.154;2022-09-20T17:27:28;15.60;99.90
17007;DHT22;8620;51.168;4.154;2022-09-20T17:30:02;15.40;99.90
17007;DHT22;8620;51.168;4.154;2022-09-20T17:32:28;15.50;99.90
17007;DHT22;8620;51.168;4.154;2022-09-20T17:35:00;15.40;99.90
17007;DHT22;8620;51.168;4.154;2022-09-20T17:37:26;15.40;99.90
17007;DHT22;8620;51.168;4.154;2022-09-20T17:39:52;15.30;99.90
17007;DHT22;8620;51.168;4.154;2022-09-20T17:42:17;15.20;99.90
17007;DHT22;8620;51.168;4.154;2022-09-20T17:44:50;15.20;99.90
17007;DHT22;8620;51.168;4.154;2022-09-20T17:47:16;15.20;99.90
17007;DHT22;8620;51.168;4.154;2022-09-20T17:49:44;15.10;99.90
17007;DHT22;8620;51.168;4.154;2022-09-20T17:52:10;15.10;99.90
17007;DHT22;8620;51.168;4.154;2022-09-20T17:54:36;15.10;99.90
17007;DHT22;8620;51.168;4.154;2022-09-20T17:57:02;15.10;99.90
17007;DHT22;8620;51.168;4.154;2022-09-20T17:59:30;15.00;99.90
17007;DHT22;8620;51.168;4.154;2022-09-20T18:02:04;15.00;99.90
17007;DHT22;8620;51.168;4.154;2022-09-20T18:04:33;15.00;99.90
17007;DHT22;8620;51.168;4.154;2022-09-20T18:06:59;14.90;99.90
17007;DHT22;8620;51.168;4.154;2022-09-20T18:09:34;14.90;99.90
17007;DHT22;8620;51.168;4.154;2022-09-20T18:12:05;15.10;99.90
17007;DHT22;8620;51.168;4.154;2022-09-20T18:14:31;15.10;99.90
17007;DHT22;8620;51.168;4.154;2022-09-20T18:16:59;14.90;99.90
17007;DHT22;8620;51.168;4.154;2022-09-20T18:19:26;14.70;99.90
17007;DHT22;8620;51.168;4.154;2022-09-20T18:22:02;14.60;99.90
17007;DHT22;8620;51.168;4.154;2022-09-20T18:24:36;14.50;99.90
17007;DHT22;8620;51.168;4.154;2022-09-20T18:27:07;14.50;99.90
17007;DHT22;8620;51.168;4.154;2022-09-20T18:29:38;14.30;99.90
17007;DHT22;8620;51.168;4.154;2022-09-20T18:32:03;14.20;99.90
17007;DHT22;8620;51.168;4.154;2022-09-20T18:34:33;14.00;99.90
17007;DHT22;8620;51.168;4.154;2022-09-20T18:37:02;13.90;99.90
17007;DHT22;8620;51.168;4.154;2022-09-20T18:39:32;13.90;99.90
17007;DHT22;8620;51.168;4.154;2022-09-20T18:42:04;13.70;99.90
17007;DHT22;8620;51.168;4.154;2022-09-20T18:44:36;13.70;99.90
17007;DHT22;8620;51.168;4.154;2022-09-20T18:47:03;13.60;99.90
17007;DHT22;8620;51.168;4.154;2022-09-20T18:49:30;13.70;99.90
17007;DHT22;8620;51.168;4.154;2022-09-20T18:52:00;13.60;99.90
17007;DHT22;8620;51.168;4.154;2022-09-20T18:54:35;13.50;99.90
17007;DHT22;8620;51.168;4.154;2022-09-20T18:57:04;13.40;99.90
17007;DHT22;8620;51.168;4.154;2022-09-20T18:59:30;13.30;99.90
17007;DHT22;8620;51.168;4.154;2022-09-20T19:02:31;13.20;99.90
17007;DHT22;8620;51.168;4.154;2022-09-20T19:10:53;13.10;99.90
17007;DHT22;8620;51.168;4.154;2022-09-20T19:16:28;12.90;99.90
17007;DHT22;8620;51.168;4.154;2022-09-20T19:21:41;12.80;99.90
17007;DHT22;8620;51.168;4.154;2022-09-20T19:26:50;12.70;99.90
17007;DHT22;8620;51.168;4.154;2022-09-20T19:29:19;12.90;99.90
17007;DHT22;8620;51.168;4.154;2022-09-20T19:31:55;12.90;99.90
17007;DHT22;8620;51.168;4.154;2022-09-20T19:34:24;12.90;99.90
17007;DHT22;8620;51.168;4.154;2022-09-20T19:51:12;12.50;99.90
17007;DHT22;8620;51.168;4.154;2022-09-20T19:53:41;12.50;99.90
17007;DHT22;8620;51.168;4.154;2022-09-20T19:56:23;12.50;99.90
17007;DHT22;8620;51.168;4.154;2022-09-20T19:58:56;12.50;99.90
17007;DHT22;8620;51.168;4.154;2022-09-20T20:01:28;12.40;99.90
17007;DHT22;8620;51.168;4.154;2022-09-20T20:03:54;12.30;99.90
17007;DHT22;8620;51.168;4.154;2022-09-20T20:06:40;12.30;99.90
17007;DHT22;8620;51.168;4.154;2022-09-20T20:09:31;12.30;99.90
17007;DHT22;8620;51.168;4.154;2022-09-20T20:15:01;12.30;99.90
17007;DHT22;8620;51.168;4.154;2022-09-20T20:20:53;12.20;99.90
17007;DHT22;8620;51.168;4.154;2022-09-20T20:23:55;12.20;99.90
17007;DHT22;8620;51.168;4.154;2022-09-20T20:26:28;12.20;99.90
17007;DHT22;8620;51.168;4.154;2022-09-20T20:28:55;12.10;99.90
17007;DHT22;8620;51.168;4.154;2022-09-20T20:31:24;12.10;99.90
17007;DHT22;8620;51.168;4.154;2022-09-20T20:33:50;12.10;99.90
17007;DHT22;8620;51.168;4.154;2022-09-20T20:36:21;12.10;99.90
17007;DHT22;8620;51.168;4.154;2022-09-20T20:38:50;12.10;99.90
17007;DHT22;8620;51.168;4.154;2022-09-20T20:41:19;12.00;99.90
17007;DHT22;8620;51.168;4.154;2022-09-20T20:43:47;12.00;99.90
17007;DHT22;8620;51.168;4.154;2022-09-20T20:46:17;11.80;99.90
17007;DHT22;8620;51.168;4.154;2022-09-20T20:48:44;11.60;99.90
17007;DHT22;8620;51.168;4.154;2022-09-20T20:51:13;11.60;99.90
17007;DHT22;8620;51.168;4.154;2022-09-20T20:53:48;11.70;99.90
17007;DHT22;8620;51.168;4.154;2022-09-20T20:56:23;11.80;99.90
17007;DHT22;8620;51.168;4.154;2022-09-20T20:58:57;11.80;99.90
17007;DHT22;8620;51.168;4.154;2022-09-20T21:03:57;11.60;99.90
17007;DHT22;8620;51.168;4.154;2022-09-20T21:06:34;11.50;99.90
17007;DHT22;8620;51.168;4.154;2022-09-20T21:09:08;11.40;99.90
17007;DHT22;8620;51.168;4.154;2022-09-20T21:11:39;11.30;99.90
17007;DHT22;8620;51.168;4.154;2022-09-20T21:14:10;11.30;99.90
17007;DHT22;8620;51.168;4.154;2022-09-20T21:16:42;11.30;99.90
17007;DHT22;8620;51.168;4.154;2022-09-20T21:19:08;11.30;99.90
17007;DHT22;8620;51.168;4.154;2022-09-20T21:21:39;11.30;99.90
17007;DHT22;8620;51.168;4.154;2022-09-20T21:24:38;11.40;99.90
17007;DHT22;8620;51.168;4.154;2022-09-20T21:27:11;11.60;99.90
17007;DHT22;8620;51.168;4.154;2022-09-20T21:29:37;11.50;99.90
17007;DHT22;8620;51.168;4.154;2022-09-20T21:32:02;11.50;99.90
17007;DHT22;8620;51.168;4.154;2022-09-20T21:34:28;11.60;99.90
17007;DHT22;8620;51.168;4.154;2022-09-20T21:36:54;11.60;99.90
17007;DHT22;8620;51.168;4.154;2022-09-20T21:39:20;11.60;99.90
17007;DHT22;8620;51.168;4.154;2022-09-20T21:41:46;11.60;99.90
17007;DHT22;8620;51.168;4.154;2022-09-20T21:44:13;11.70;99.90
17007;DHT22;8620;51.168;4.154;2022-09-20T21:46:40;11.70;99.90
17007;DHT22;8620;51.168;4.154;2022-09-20T21:49:10;11.60;99.90
17007;DHT22;8620;51.168;4.154;2022-09-20T21:51:38;11.60;99.90
17007;DHT22;8620;51.168;4.154;2022-09-20T21:54:06;11.40;99.90
17007;DHT22;8620;51.168;4.154;2022-09-20T21:56:34;11.60;99.90
17007;DHT22;8620;51.168;4.154;2022-09-20T22:02:21;11.20;99.90